createdAt,value
2022-12-29T00:01:12.218Z,3.74
2022-12-29T00:03:38.682Z,4.01
2022-12-29T00:06:05.075Z,3.94
2022-12-29T00:08:31.355Z,3.89
2022-12-29T00:10:57.612Z,3.88
2022-12-29T00:13:23.857Z,4.15
2022-12-29T00:15:50.135Z,4.07
2022-12-29T00:18:16.399Z,4.10
2022-12-29T00:20:44.317Z,4.34
2022-12-29T00:23:10.591Z,4.48
2022-12-29T00:25:36.884Z,4.37
2022-12-29T00:28:07.204Z,4.31
2022-12-29T00:30:33.934Z,4.42
2022-12-29T00:33:00.184Z,4.29
2022-12-29T00:35:26.444Z,4.46
2022-12-29T00:37:52.692Z,4.34
2022-12-29T00:40:18.951Z,4.48
2022-12-29T00:42:45.205Z,4.69
2022-12-29T00:45:11.452Z,4.69
2022-12-29T00:47:37.700Z,4.64
2022-12-29T00:50:03.934Z,4.60
2022-12-29T00:52:30.187Z,4.97
2022-12-29T00:54:56.446Z,5.11
2022-12-29T00:57:22.689Z,4.86
2022-12-29T00:59:48.944Z,4.99
2022-12-29T01:02:15.309Z,5.32
2022-12-29T01:04:41.710Z,4.92
2022-12-29T01:07:07.985Z,4.82
2022-12-29T01:09:34.225Z,5.22
2022-12-29T01:12:00.504Z,5.13
2022-12-29T01:14:26.788Z,5.37
2022-12-29T01:16:53.032Z,5.28
2022-12-29T01:19:19.292Z,5.11
2022-12-29T01:21:45.566Z,5.63
2022-12-29T01:24:11.816Z,5.72
2022-12-29T01:26:38.074Z,6.00
2022-12-29T01:29:04.332Z,5.74
2022-12-29T01:31:30.622Z,5.88
2022-12-29T01:33:56.921Z,5.78
2022-12-29T01:36:23.218Z,5.85
2022-12-29T01:38:49.557Z,6.12
2022-12-29T01:41:15.797Z,5.75
2022-12-29T01:43:42.076Z,5.72
2022-12-29T01:46:08.383Z,5.69
2022-12-29T01:48:34.651Z,5.98
2022-12-29T01:51:00.917Z,5.79
2022-12-29T01:53:27.174Z,5.74
2022-12-29T01:55:53.435Z,5.62
2022-12-29T01:58:19.675Z,5.54
2022-12-29T02:00:45.988Z,5.94
2022-12-29T02:03:12.452Z,6.19
2022-12-29T02:05:38.797Z,5.78
2022-12-29T02:08:05.053Z,5.71
2022-12-29T02:10:31.301Z,5.92
2022-12-29T02:12:57.561Z,5.97
2022-12-29T02:15:23.801Z,5.93
2022-12-29T02:17:50.057Z,5.74
2022-12-29T02:20:16.335Z,6.01
2022-12-29T02:22:42.588Z,5.74
2022-12-29T02:25:08.839Z,6.07
2022-12-29T02:27:35.084Z,5.97
2022-12-29T02:30:01.337Z,5.85
2022-12-29T02:32:27.581Z,5.94
2022-12-29T02:34:53.862Z,5.87
2022-12-29T02:37:20.116Z,6.18
2022-12-29T02:39:46.392Z,5.85
2022-12-29T02:42:12.650Z,6.11
2022-12-29T02:44:38.925Z,5.79
2022-12-29T02:47:05.191Z,5.98
2022-12-29T02:49:31.434Z,5.72
2022-12-29T02:51:57.693Z,5.53
2022-12-29T02:54:23.951Z,5.62
2022-12-29T02:56:50.240Z,5.15
2022-12-29T02:59:16.479Z,4.98
2022-12-29T03:01:44.664Z,5.42
2022-12-29T03:04:11.010Z,5.31
2022-12-29T03:06:37.319Z,5.16
2022-12-29T03:09:03.603Z,5.00
2022-12-29T03:11:29.864Z,5.01
2022-12-29T03:13:56.109Z,5.25
2022-12-29T03:16:22.455Z,4.60
2022-12-29T03:18:48.766Z,4.90
2022-12-29T03:21:15.011Z,4.65
2022-12-29T03:23:41.268Z,4.61
2022-12-29T03:26:07.547Z,5.04
2022-12-29T03:28:33.803Z,5.15
2022-12-29T03:31:00.580Z,4.77
2022-12-29T03:33:26.880Z,4.82
2022-12-29T03:35:53.144Z,5.14
2022-12-29T03:38:19.404Z,5.24
2022-12-29T03:40:45.723Z,4.91
2022-12-29T03:43:11.962Z,5.14
2022-12-29T03:45:38.213Z,4.80
2022-12-29T03:48:04.480Z,4.97
2022-12-29T03:50:30.721Z,5.01
2022-12-29T03:52:56.974Z,4.59
2022-12-29T03:55:23.241Z,4.34
2022-12-29T03:57:49.489Z,4.49
2022-12-29T04:00:15.740Z,4.29
2022-12-29T04:02:42.251Z,4.30
2022-12-29T04:05:08.698Z,4.12
2022-12-29T04:07:34.951Z,4.42
2022-12-29T04:10:01.230Z,4.59
2022-12-29T04:12:27.560Z,3.91
2022-12-29T04:14:53.846Z,4.04
2022-12-29T04:17:20.135Z,4.07
2022-12-29T04:19:46.582Z,4.06
2022-12-29T04:22:12.857Z,3.77
2022-12-29T04:24:39.100Z,4.22
2022-12-29T04:27:05.360Z,4.21
2022-12-29T04:29:31.604Z,4.21
2022-12-29T04:31:57.868Z,4.23
2022-12-29T04:34:24.139Z,4.33
2022-12-29T04:36:50.390Z,3.91
2022-12-29T04:39:16.648Z,3.92
2022-12-29T04:41:42.933Z,3.85
2022-12-29T04:44:09.185Z,3.76
2022-12-29T04:46:35.505Z,4.08
2022-12-29T04:49:01.779Z,4.31
2022-12-29T04:51:28.044Z,4.33
2022-12-29T04:53:54.300Z,4.41
2022-12-29T04:56:20.559Z,4.53
2022-12-29T04:58:46.816Z,4.32
2022-12-29T05:01:13.101Z,4.71
2022-12-29T05:03:40.412Z,4.48
2022-12-29T05:06:06.734Z,4.64
2022-12-29T05:08:33.672Z,4.79
2022-12-29T05:10:59.935Z,4.92
2022-12-29T05:13:26.224Z,4.86
2022-12-29T05:15:52.724Z,4.72
2022-12-29T05:18:19.063Z,5.11
2022-12-29T05:20:46.406Z,5.08
2022-12-29T05:23:12.662Z,4.92
2022-12-29T05:25:39.005Z,4.79
2022-12-29T05:28:05.248Z,5.15
2022-12-29T05:30:31.500Z,5.09
2022-12-29T05:32:57.786Z,5.47
2022-12-29T05:35:24.026Z,5.56
2022-12-29T05:37:50.276Z,5.08
2022-12-29T05:40:16.526Z,4.97
2022-12-29T05:42:43.588Z,5.22
2022-12-29T05:45:09.858Z,5.09
2022-12-29T05:47:36.127Z,4.98
2022-12-29T05:50:02.389Z,4.76
2022-12-29T05:52:28.676Z,4.64
2022-12-29T05:54:54.946Z,4.45
2022-12-29T05:57:21.229Z,4.34
2022-12-29T05:59:47.481Z,4.13
2022-12-29T06:02:13.873Z,4.21
2022-12-29T06:04:40.477Z,4.16
2022-12-29T06:07:06.762Z,4.03
2022-12-29T06:09:33.529Z,4.08
2022-12-29T06:11:59.787Z,3.87
2022-12-29T06:14:26.052Z,3.90
2022-12-29T06:16:52.427Z,4.04
2022-12-29T06:19:18.890Z,3.95
2022-12-29T06:21:45.159Z,4.05
2022-12-29T06:24:11.423Z,4.09
2022-12-29T06:26:37.701Z,3.71
2022-12-29T06:29:03.964Z,3.66
2022-12-29T06:31:30.417Z,4.99
2022-12-29T06:33:56.711Z,3.77
2022-12-29T06:36:22.984Z,3.60
2022-12-29T06:38:49.240Z,3.68
2022-12-29T06:41:15.492Z,3.39
2022-12-29T06:43:41.785Z,3.25
2022-12-29T06:46:08.075Z,3.39
2022-12-29T06:48:34.403Z,3.48
2022-12-29T06:51:00.681Z,3.20
2022-12-29T06:53:26.969Z,3.32
2022-12-29T06:55:53.241Z,3.38
2022-12-29T06:58:19.477Z,3.09
2022-12-29T07:00:45.876Z,3.04
2022-12-29T07:03:12.219Z,3.35
2022-12-29T07:05:38.492Z,3.07
2022-12-29T07:08:04.780Z,3.18
2022-12-29T07:10:31.052Z,3.36
2022-12-29T07:12:57.311Z,2.96
2022-12-29T07:15:23.571Z,3.11
2022-12-29T07:17:49.830Z,3.37
2022-12-29T07:20:16.076Z,3.26
2022-12-29T07:22:42.329Z,3.16
2022-12-29T07:25:08.585Z,3.36
2022-12-29T07:27:34.846Z,3.38
2022-12-29T07:30:01.098Z,3.25
2022-12-29T07:32:27.332Z,2.98
2022-12-29T07:34:53.600Z,3.02
2022-12-29T07:37:19.861Z,3.26
2022-12-29T07:39:46.122Z,3.32
2022-12-29T07:42:12.365Z,3.11
2022-12-29T07:44:38.637Z,3.34
2022-12-29T07:47:04.905Z,3.08
2022-12-29T07:49:31.158Z,3.19
2022-12-29T07:51:57.416Z,3.02
2022-12-29T07:54:24.210Z,3.03
2022-12-29T07:56:50.560Z,3.08
2022-12-29T07:59:16.822Z,2.97
2022-12-29T08:01:43.228Z,2.86
2022-12-29T08:04:09.646Z,2.92
2022-12-29T08:06:35.980Z,2.77
2022-12-29T08:09:11.087Z,2.77
2022-12-29T08:11:39.796Z,2.85
2022-12-29T08:14:06.052Z,2.96
2022-12-29T08:16:32.383Z,2.63
2022-12-29T08:18:58.681Z,2.79
2022-12-29T08:21:24.923Z,2.69
2022-12-29T08:23:51.202Z,2.96
2022-12-29T08:26:17.566Z,3.19
2022-12-29T08:28:43.837Z,2.95
2022-12-29T08:31:10.141Z,2.59
2022-12-29T08:33:36.431Z,2.79
2022-12-29T08:36:02.692Z,2.79
2022-12-29T08:38:28.939Z,2.80
2022-12-29T08:40:55.200Z,2.97
2022-12-29T08:43:21.497Z,2.96
2022-12-29T08:45:47.752Z,2.94
2022-12-29T08:48:14.005Z,2.62
2022-12-29T08:50:40.264Z,2.43
2022-12-29T08:53:06.599Z,2.58
2022-12-29T08:55:32.870Z,2.66
2022-12-29T08:57:59.149Z,2.60
2022-12-29T09:00:25.401Z,2.80
2022-12-29T09:02:51.782Z,2.69
2022-12-29T09:05:18.142Z,2.92
2022-12-29T09:07:44.688Z,2.45
2022-12-29T09:10:10.964Z,2.25
2022-12-29T09:12:37.248Z,2.64
2022-12-29T09:15:03.613Z,2.47
2022-12-29T09:17:29.888Z,2.49
2022-12-29T09:19:56.147Z,2.62
2022-12-29T09:22:22.409Z,2.52
2022-12-29T09:24:48.656Z,2.59
2022-12-29T09:27:14.917Z,2.53
2022-12-29T09:29:41.161Z,2.59
2022-12-29T09:32:08.224Z,2.54
2022-12-29T09:34:34.849Z,2.43
2022-12-29T09:37:01.106Z,2.31
2022-12-29T09:39:27.357Z,2.43
2022-12-29T09:41:53.656Z,2.56
2022-12-29T09:44:19.927Z,2.15
2022-12-29T09:46:46.281Z,2.26
2022-12-29T09:49:12.635Z,2.27
2022-12-29T09:51:38.966Z,2.35
2022-12-29T09:54:05.236Z,2.23
2022-12-29T09:56:31.515Z,2.33
2022-12-29T09:58:57.771Z,2.35
2022-12-29T10:01:24.137Z,2.49
2022-12-29T10:03:50.507Z,2.30
2022-12-29T10:06:16.761Z,2.23
2022-12-29T10:08:43.030Z,2.18
2022-12-29T10:11:09.282Z,2.12
2022-12-29T10:13:35.534Z,2.20
2022-12-29T10:16:01.858Z,2.15
2022-12-29T10:18:28.131Z,2.40
2022-12-29T10:20:54.385Z,2.34
2022-12-29T10:23:20.629Z,2.15
2022-12-29T10:25:46.886Z,2.09
2022-12-29T10:28:13.142Z,2.00
2022-12-29T10:30:39.411Z,1.93
2022-12-29T10:33:05.716Z,2.28
2022-12-29T10:35:31.995Z,1.88
2022-12-29T10:37:58.265Z,2.17
2022-12-29T10:40:24.522Z,1.97
2022-12-29T10:42:50.796Z,2.09
2022-12-29T10:45:17.094Z,2.11
2022-12-29T10:47:43.376Z,2.11
2022-12-29T10:50:09.617Z,2.15
2022-12-29T10:52:35.867Z,2.15
2022-12-29T10:55:02.141Z,2.19
2022-12-29T10:57:28.396Z,1.87
2022-12-29T10:59:54.629Z,1.90
2022-12-29T11:02:20.979Z,1.98
2022-12-29T11:04:47.279Z,1.91
2022-12-29T11:07:16.364Z,2.00
2022-12-29T11:09:43.552Z,2.21
2022-12-29T11:12:10.100Z,2.05
2022-12-29T11:14:36.342Z,2.16
2022-12-29T11:17:02.616Z,2.10
2022-12-29T11:19:28.875Z,2.12
2022-12-29T11:21:55.154Z,2.12
2022-12-29T11:24:21.419Z,2.24
2022-12-29T11:26:47.704Z,2.07
2022-12-29T11:29:13.984Z,2.05
2022-12-29T11:31:40.331Z,1.91
2022-12-29T11:34:06.642Z,1.98
2022-12-29T11:36:32.886Z,2.28
2022-12-29T11:38:59.851Z,2.15
2022-12-29T11:41:26.125Z,2.17
2022-12-29T11:43:52.397Z,2.15
2022-12-29T11:46:18.749Z,2.26
2022-12-29T11:48:45.180Z,2.04
2022-12-29T11:51:11.438Z,2.18
2022-12-29T11:53:37.695Z,2.14
2022-12-29T11:56:04.004Z,2.07
2022-12-29T11:58:30.288Z,2.09
2022-12-29T12:00:56.553Z,2.25
2022-12-29T12:03:22.974Z,2.21
2022-12-29T12:05:49.284Z,2.40
2022-12-29T12:08:20.750Z,2.42
2022-12-29T12:10:47.644Z,2.30
2022-12-29T12:13:13.893Z,2.18
2022-12-29T12:15:45.380Z,2.21
2022-12-29T12:18:12.367Z,2.21
2022-12-29T12:20:39.157Z,2.31
2022-12-29T12:23:05.401Z,2.27
2022-12-29T12:25:31.644Z,2.12
2022-12-29T12:27:57.880Z,1.99
2022-12-29T12:30:24.145Z,1.95
2022-12-29T12:32:50.553Z,2.05
2022-12-29T12:35:21.622Z,1.95
2022-12-29T12:37:48.301Z,2.09
2022-12-29T12:40:14.584Z,2.07
2022-12-29T12:42:40.845Z,2.03
2022-12-29T12:45:07.127Z,2.05
2022-12-29T12:47:33.378Z,1.95
2022-12-29T12:49:59.613Z,1.88
2022-12-29T12:52:25.967Z,1.76
2022-12-29T12:54:52.242Z,1.75
2022-12-29T12:57:18.502Z,1.52
2022-12-29T12:59:44.753Z,1.75
2022-12-29T13:02:11.135Z,1.90
2022-12-29T13:04:37.435Z,1.88
2022-12-29T13:07:03.714Z,1.73
2022-12-29T13:09:29.981Z,1.79
2022-12-29T13:11:56.234Z,1.92
2022-12-29T13:14:22.515Z,1.83
2022-12-29T13:16:48.794Z,1.65
2022-12-29T13:19:15.053Z,1.86
2022-12-29T13:21:41.312Z,1.75
2022-12-29T13:24:07.586Z,1.76
2022-12-29T13:26:33.857Z,1.69
2022-12-29T13:29:00.133Z,1.68
2022-12-29T13:31:26.419Z,1.86
2022-12-29T13:33:52.690Z,1.79
2022-12-29T13:36:19.080Z,1.88
2022-12-29T13:38:45.342Z,1.68
2022-12-29T13:41:11.578Z,1.61
2022-12-29T13:43:37.818Z,1.66
2022-12-29T13:46:04.111Z,1.66
2022-12-29T13:48:30.406Z,1.78
2022-12-29T13:50:56.690Z,1.79
2022-12-29T13:53:22.936Z,1.87
2022-12-29T13:55:49.196Z,1.91
2022-12-29T13:58:15.443Z,1.97
2022-12-29T14:00:41.691Z,1.94
2022-12-29T14:03:08.144Z,1.90
2022-12-29T14:05:34.507Z,2.01
2022-12-29T14:08:00.791Z,1.95
2022-12-29T14:10:27.033Z,1.87
2022-12-29T14:12:53.296Z,1.78
2022-12-29T14:15:19.544Z,2.00
2022-12-29T14:17:45.795Z,1.83
2022-12-29T14:20:12.095Z,1.98
2022-12-29T14:22:38.356Z,2.01
2022-12-29T14:25:04.625Z,1.99
2022-12-29T14:27:30.872Z,1.90
2022-12-29T14:29:57.121Z,1.83
2022-12-29T14:32:23.387Z,1.77
2022-12-29T14:34:52.545Z,1.95
2022-12-29T14:37:19.111Z,1.85
2022-12-29T14:39:45.385Z,2.01
2022-12-29T14:42:11.698Z,1.99
2022-12-29T14:44:37.978Z,1.97
2022-12-29T14:47:04.315Z,1.85
2022-12-29T14:49:30.724Z,2.15
2022-12-29T14:51:56.977Z,2.19
2022-12-29T14:54:23.232Z,2.12
2022-12-29T14:56:49.474Z,2.02
2022-12-29T14:59:15.725Z,2.11
2022-12-29T15:01:42.158Z,2.25
2022-12-29T15:04:08.569Z,2.49
2022-12-29T15:06:34.837Z,2.31
2022-12-29T15:09:01.087Z,2.32
2022-12-29T15:11:27.341Z,2.45
2022-12-29T15:13:53.591Z,2.19
2022-12-29T15:16:19.923Z,2.35
2022-12-29T15:18:46.182Z,2.50
2022-12-29T15:21:12.446Z,2.66
2022-12-29T15:23:38.714Z,3.76
2022-12-29T15:26:04.995Z,3.30
2022-12-29T15:28:31.237Z,2.78
2022-12-29T15:30:57.482Z,2.80
2022-12-29T15:33:23.739Z,2.70
2022-12-29T15:35:49.991Z,2.56
2022-12-29T15:38:16.233Z,2.70
2022-12-29T15:40:42.476Z,2.98
2022-12-29T15:43:08.720Z,2.73
2022-12-29T15:45:35.030Z,2.80
2022-12-29T15:48:01.363Z,2.91
2022-12-29T15:50:27.629Z,2.97
2022-12-29T15:52:53.871Z,2.92
2022-12-29T15:55:20.125Z,3.09
2022-12-29T15:57:46.389Z,3.06
2022-12-29T16:00:12.662Z,3.07
2022-12-29T16:02:39.176Z,3.14
2022-12-29T16:05:21.033Z,2.98
2022-12-29T16:07:47.321Z,3.21
2022-12-29T16:10:13.577Z,3.31
2022-12-29T16:12:39.817Z,3.45
2022-12-29T16:15:06.068Z,3.45
2022-12-29T16:17:32.338Z,3.69
2022-12-29T16:19:58.593Z,3.62
2022-12-29T16:22:24.865Z,3.71
2022-12-29T16:24:51.126Z,3.87
2022-12-29T16:27:17.378Z,4.17
2022-12-29T16:29:43.629Z,4.03
2022-12-29T16:32:09.891Z,4.33
2022-12-29T16:34:36.141Z,4.48
2022-12-29T16:37:02.405Z,4.62
2022-12-29T16:39:28.673Z,4.39
2022-12-29T16:41:55.021Z,4.61
2022-12-29T16:44:21.279Z,4.38
2022-12-29T16:46:47.513Z,4.82
2022-12-29T16:49:13.760Z,4.87
2022-12-29T16:51:40.026Z,4.77
2022-12-29T16:54:06.402Z,4.90
2022-12-29T16:56:32.641Z,9.24
2022-12-29T16:58:58.882Z,5.54
2022-12-29T17:01:25.210Z,5.05
2022-12-29T17:03:51.569Z,4.82
2022-12-29T17:06:17.884Z,4.81
2022-12-29T17:08:44.136Z,4.59
2022-12-29T17:11:10.368Z,4.81
2022-12-29T17:13:36.609Z,4.74
2022-12-29T17:16:02.947Z,4.70
2022-12-29T17:18:29.267Z,4.93
2022-12-29T17:20:55.521Z,4.72
2022-12-29T17:23:26.296Z,4.94
2022-12-29T17:25:53.073Z,4.83
2022-12-29T17:28:19.311Z,5.04
2022-12-29T17:30:45.581Z,5.05
2022-12-29T17:33:11.854Z,4.91
2022-12-29T17:35:38.126Z,4.91
2022-12-29T17:38:04.373Z,5.07
2022-12-29T17:40:30.649Z,4.73
2022-12-29T17:42:56.909Z,5.03
2022-12-29T17:45:23.171Z,4.75
2022-12-29T17:47:49.447Z,4.79
2022-12-29T17:50:15.710Z,4.91
2022-12-29T17:52:41.971Z,5.23
2022-12-29T17:55:08.234Z,5.27
2022-12-29T17:57:34.497Z,5.52
2022-12-29T18:00:00.764Z,5.41
2022-12-29T18:02:27.205Z,5.27
2022-12-29T18:04:53.559Z,5.08
2022-12-29T18:07:19.816Z,5.47
2022-12-29T18:09:46.072Z,5.22
2022-12-29T18:12:12.315Z,5.24
2022-12-29T18:14:38.560Z,4.93
2022-12-29T18:17:04.799Z,4.46
2022-12-29T18:19:35.771Z,4.30
2022-12-29T18:22:02.388Z,3.64
2022-12-29T18:24:28.636Z,2.45
2022-12-29T18:26:54.885Z,2.91
2022-12-29T18:29:21.129Z,2.98
2022-12-29T18:31:47.421Z,2.62
2022-12-29T18:34:13.727Z,2.20
2022-12-29T18:36:40.009Z,2.13
2022-12-29T18:39:06.305Z,1.75
2022-12-29T18:41:32.566Z,1.48
2022-12-29T18:43:58.852Z,1.38
2022-12-29T18:46:25.172Z,1.39
2022-12-29T18:48:51.526Z,1.41
2022-12-29T18:51:17.829Z,1.57
2022-12-29T18:53:44.076Z,1.60
2022-12-29T18:56:10.332Z,1.67
2022-12-29T18:58:36.598Z,1.81
2022-12-29T19:01:02.910Z,1.86
2022-12-29T19:03:29.359Z,3.47
2022-12-29T19:05:55.649Z,5.16
2022-12-29T19:08:21.926Z,5.93
2022-12-29T19:10:48.174Z,6.51
2022-12-29T19:13:14.432Z,6.13
2022-12-29T19:15:40.745Z,5.75
2022-12-29T19:18:42.290Z,5.16
2022-12-29T19:20:53.267Z,4.60
2022-12-29T19:23:19.542Z,4.20
2022-12-29T19:25:45.808Z,3.87
2022-12-29T19:28:12.063Z,3.59
2022-12-29T19:30:38.328Z,3.96
2022-12-29T19:33:09.602Z,3.82
2022-12-29T19:35:36.366Z,3.55
2022-12-29T19:38:02.625Z,3.21
2022-12-29T19:40:28.897Z,2.86
2022-12-29T19:42:55.143Z,2.63
2022-12-29T19:45:21.389Z,2.17
2022-12-29T19:47:47.629Z,1.85
2022-12-29T19:50:13.893Z,1.77
2022-12-29T19:52:40.137Z,1.86
2022-12-29T19:55:06.401Z,1.57
2022-12-29T19:57:32.784Z,1.37
2022-12-29T19:59:59.027Z,1.29
2022-12-29T20:02:25.440Z,1.30
2022-12-29T20:04:51.872Z,1.87
2022-12-29T20:07:18.219Z,1.80
2022-12-29T20:09:44.545Z,1.62
2022-12-29T20:12:10.840Z,1.89
2022-12-29T20:14:37.104Z,3.63
2022-12-29T20:17:11.239Z,4.30
2022-12-29T20:19:38.179Z,4.24
2022-12-29T20:22:04.444Z,3.25
2022-12-29T20:24:30.700Z,4.45
2022-12-29T20:26:56.949Z,2.04
2022-12-29T20:29:23.212Z,1.35
2022-12-29T20:31:49.559Z,1.21
2022-12-29T20:34:15.835Z,1.23
2022-12-29T20:36:42.074Z,1.06
2022-12-29T20:39:08.347Z,1.07
2022-12-29T20:41:34.596Z,0.99
2022-12-29T20:44:00.852Z,0.98
2022-12-29T20:46:33.943Z,0.95
2022-12-29T20:49:05.580Z,0.88
2022-12-29T20:51:55.287Z,0.97
2022-12-29T20:54:18.038Z,1.02
2022-12-29T20:56:44.310Z,0.99
2022-12-29T20:59:27.447Z,1.07
2022-12-29T21:01:54.253Z,1.16
2022-12-29T21:04:20.623Z,1.04
2022-12-29T21:06:46.856Z,1.22
2022-12-29T21:09:13.091Z,1.19
2022-12-29T21:11:39.349Z,1.16
2022-12-29T21:14:05.611Z,1.52
2022-12-29T21:16:31.904Z,1.57
2022-12-29T21:18:58.156Z,1.56
2022-12-29T21:21:24.405Z,1.82
2022-12-29T21:23:50.662Z,1.56
2022-12-29T21:26:16.924Z,1.56
2022-12-29T21:28:43.197Z,1.63
2022-12-29T21:31:09.515Z,2.04
2022-12-29T21:33:35.784Z,1.99
2022-12-29T21:36:02.039Z,2.17
2022-12-29T21:38:28.285Z,2.13
2022-12-29T21:40:54.543Z,2.47
2022-12-29T21:43:20.789Z,2.58
2022-12-29T21:45:47.096Z,2.54
2022-12-29T21:48:13.388Z,2.78
2022-12-29T21:50:39.638Z,2.90
2022-12-29T21:53:05.895Z,2.96
2022-12-29T21:55:32.153Z,3.11
2022-12-29T21:57:58.403Z,3.03
2022-12-29T22:00:24.677Z,3.15
2022-12-29T22:02:51.118Z,2.78
2022-12-29T22:05:17.508Z,3.05
2022-12-29T22:07:43.767Z,2.91
2022-12-29T22:10:10.034Z,2.70
2022-12-29T22:12:36.282Z,2.62
2022-12-29T22:15:02.544Z,2.65
2022-12-29T22:17:30.194Z,2.53
2022-12-29T22:19:57.947Z,2.39
2022-12-29T22:22:24.196Z,2.15
2022-12-29T22:24:50.460Z,2.33
2022-12-29T22:27:16.704Z,2.05
2022-12-29T22:29:42.957Z,2.15
2022-12-29T22:32:09.220Z,2.06
2022-12-29T22:34:35.483Z,2.24
2022-12-29T22:37:01.789Z,2.10
2022-12-29T22:39:28.066Z,1.77
2022-12-29T22:41:54.309Z,1.52
2022-12-29T22:44:20.572Z,1.49
2022-12-29T22:46:46.854Z,1.37
2022-12-29T22:49:13.137Z,1.32
2022-12-29T22:51:39.397Z,1.20
2022-12-29T22:54:05.635Z,1.24
2022-12-29T22:56:31.868Z,0.92
2022-12-29T22:58:58.129Z,0.94
2022-12-29T23:01:24.507Z,0.86
2022-12-29T23:03:50.907Z,0.63
2022-12-29T23:06:17.240Z,0.66
2022-12-29T23:08:43.482Z,0.72
2022-12-29T23:11:09.708Z,0.67
2022-12-29T23:13:35.991Z,0.71
2022-12-29T23:16:02.295Z,0.80
2022-12-29T23:18:28.584Z,1.03
2022-12-29T23:20:54.831Z,0.94
2022-12-29T23:23:21.093Z,1.08
2022-12-29T23:25:47.349Z,1.02
2022-12-29T23:28:13.605Z,0.94
2022-12-29T23:30:39.874Z,0.89
2022-12-29T23:33:06.138Z,0.93
2022-12-29T23:35:32.389Z,0.82
2022-12-29T23:37:58.641Z,0.99
2022-12-29T23:40:24.911Z,1.00
2022-12-29T23:42:51.149Z,0.91
2022-12-29T23:45:17.412Z,0.91
2022-12-29T23:47:43.688Z,0.83
2022-12-29T23:50:09.949Z,0.86
2022-12-29T23:52:36.197Z,0.92
2022-12-29T23:55:02.446Z,0.76
2022-12-29T23:57:28.682Z,0.78
2022-12-29T23:59:54.923Z,0.70
